sensor_id;sensor_type;location;lat;lon;timestamp;temperature;humidity
13569;DHT22;6856;51.460;7.158;2024-02-26T00:01:34;9.10;59.10
13569;DHT22;6856;51.460;7.158;2024-02-26T00:04:08;9.10;58.90
13569;DHT22;6856;51.460;7.158;2024-02-26T00:06:45;9.20;59.00
13569;DHT22;6856;51.460;7.158;2024-02-26T00:09:20;9.10;59.10
13569;DHT22;6856;51.460;7.158;2024-02-26T00:11:54;9.10;59.00
13569;DHT22;6856;51.460;7.158;2024-02-26T00:14:28;9.20;59.10
13569;DHT22;6856;51.460;7.158;2024-02-26T00:17:02;9.20;59.70
13569;DHT22;6856;51.460;7.158;2024-02-26T00:19:36;9.20;59.10
13569;DHT22;6856;51.460;7.158;2024-02-26T00:22:11;9.20;59.10
13569;DHT22;6856;51.460;7.158;2024-02-26T00:24:45;9.20;59.10
13569;DHT22;6856;51.460;7.158;2024-02-26T00:27:18;9.40;59.20
13569;DHT22;6856;51.460;7.158;2024-02-26T00:29:53;9.20;59.20
13569;DHT22;6856;51.460;7.158;2024-02-26T00:32:27;9.20;59.20
13569;DHT22;6856;51.460;7.158;2024-02-26T00:35:02;9.50;59.30
13569;DHT22;6856;51.460;7.158;2024-02-26T00:37:37;9.40;59.30
13569;DHT22;6856;51.460;7.158;2024-02-26T00:40:13;9.20;59.20
13569;DHT22;6856;51.460;7.158;2024-02-26T00:42:47;9.50;59.40
13569;DHT22;6856;51.460;7.158;2024-02-26T00:45:22;9.40;59.20
13569;DHT22;6856;51.460;7.158;2024-02-26T00:47:56;9.20;59.00
13569;DHT22;6856;51.460;7.158;2024-02-26T00:50:31;9.20;59.10
13569;DHT22;6856;51.460;7.158;2024-02-26T00:53:07;9.30;59.10
13569;DHT22;6856;51.460;7.158;2024-02-26T00:55:41;9.20;59.00
13569;DHT22;6856;51.460;7.158;2024-02-26T00:58:15;9.20;59.20
13569;DHT22;6856;51.460;7.158;2024-02-26T01:00:53;9.50;59.20
13569;DHT22;6856;51.460;7.158;2024-02-26T01:03:27;9.10;59.10
13569;DHT22;6856;51.460;7.158;2024-02-26T01:06:01;9.20;59.10
13569;DHT22;6856;51.460;7.158;2024-02-26T01:08:37;9.20;59.10
13569;DHT22;6856;51.460;7.158;2024-02-26T01:11:12;9.10;58.90
13569;DHT22;6856;51.460;7.158;2024-02-26T01:13:46;9.10;59.60
13569;DHT22;6856;51.460;7.158;2024-02-26T01:16:19;9.10;59.00
13569;DHT22;6856;51.460;7.158;2024-02-26T01:18:56;9.40;59.10
13569;DHT22;6856;51.460;7.158;2024-02-26T01:21:30;9.10;59.00
13569;DHT22;6856;51.460;7.158;2024-02-26T01:24:07;9.10;59.00
13569;DHT22;6856;51.460;7.158;2024-02-26T01:26:41;9.10;59.10
13569;DHT22;6856;51.460;7.158;2024-02-26T01:29:15;9.10;59.00
13569;DHT22;6856;51.460;7.158;2024-02-26T01:31:49;9.10;59.00
13569;DHT22;6856;51.460;7.158;2024-02-26T01:34:24;9.10;59.00
13569;DHT22;6856;51.460;7.158;2024-02-26T01:37:00;9.10;59.10
13569;DHT22;6856;51.460;7.158;2024-02-26T01:39:36;9.30;59.30
13569;DHT22;6856;51.460;7.158;2024-02-26T01:42:12;9.10;59.10
13569;DHT22;6856;51.460;7.158;2024-02-26T01:44:46;9.10;59.10
13569;DHT22;6856;51.460;7.158;2024-02-26T01:47:19;9.30;59.20
13569;DHT22;6856;51.460;7.158;2024-02-26T01:49:53;9.20;59.00
13569;DHT22;6856;51.460;7.158;2024-02-26T01:52:28;9.10;59.10
13569;DHT22;6856;51.460;7.158;2024-02-26T01:55:04;9.10;59.00
13569;DHT22;6856;51.460;7.158;2024-02-26T01:57:40;9.10;59.20
13569;DHT22;6856;51.460;7.158;2024-02-26T02:00:16;9.10;59.20
13569;DHT22;6856;51.460;7.158;2024-02-26T02:02:55;9.10;59.20
13569;DHT22;6856;51.460;7.158;2024-02-26T02:05:29;9.10;59.20
13569;DHT22;6856;51.460;7.158;2024-02-26T02:08:04;9.10;59.20
13569;DHT22;6856;51.460;7.158;2024-02-26T02:10:41;9.00;59.20
13569;DHT22;6856;51.460;7.158;2024-02-26T02:13:16;9.20;59.30
13569;DHT22;6856;51.460;7.158;2024-02-26T02:15:51;9.00;59.10
13569;DHT22;6856;51.460;7.158;2024-02-26T02:18:25;9.00;59.20
13569;DHT22;6856;51.460;7.158;2024-02-26T02:21:02;9.00;59.20
13569;DHT22;6856;51.460;7.158;2024-02-26T02:23:36;9.00;59.20
13569;DHT22;6856;51.460;7.158;2024-02-26T02:26:10;9.00;59.10
13569;DHT22;6856;51.460;7.158;2024-02-26T02:28:44;9.10;59.20
13569;DHT22;6856;51.460;7.158;2024-02-26T02:31:19;9.00;59.30
13569;DHT22;6856;51.460;7.158;2024-02-26T02:33:54;9.00;59.20
13569;DHT22;6856;51.460;7.158;2024-02-26T02:36:31;9.20;59.40
13569;DHT22;6856;51.460;7.158;2024-02-26T02:39:07;9.30;59.30
13569;DHT22;6856;51.460;7.158;2024-02-26T02:41:41;9.00;59.10
13569;DHT22;6856;51.460;7.158;2024-02-26T02:44:15;9.00;59.20
13569;DHT22;6856;51.460;7.158;2024-02-26T02:46:49;9.00;59.20
13569;DHT22;6856;51.460;7.158;2024-02-26T02:49:25;9.00;59.20
13569;DHT22;6856;51.460;7.158;2024-02-26T02:52:00;9.00;59.20
13569;DHT22;6856;51.460;7.158;2024-02-26T02:54:34;9.00;59.20
13569;DHT22;6856;51.460;7.158;2024-02-26T02:57:09;9.00;59.30
13569;DHT22;6856;51.460;7.158;2024-02-26T02:59:43;8.90;59.10
13569;DHT22;6856;51.460;7.158;2024-02-26T03:02:19;8.90;59.30
13569;DHT22;6856;51.460;7.158;2024-02-26T03:04:53;8.90;59.20
13569;DHT22;6856;51.460;7.158;2024-02-26T03:07:30;9.10;59.30
13569;DHT22;6856;51.460;7.158;2024-02-26T03:10:04;9.00;59.30
13569;DHT22;6856;51.460;7.158;2024-02-26T03:12:39;8.90;59.30
13569;DHT22;6856;51.460;7.158;2024-02-26T03:15:13;8.90;59.30
13569;DHT22;6856;51.460;7.158;2024-02-26T03:17:47;8.90;59.30
13569;DHT22;6856;51.460;7.158;2024-02-26T03:20:21;9.10;59.40
13569;DHT22;6856;51.460;7.158;2024-02-26T03:22:56;8.90;59.30
13569;DHT22;6856;51.460;7.158;2024-02-26T03:25:30;8.90;59.30
13569;DHT22;6856;51.460;7.158;2024-02-26T03:28:05;8.90;59.40
13569;DHT22;6856;51.460;7.158;2024-02-26T03:30:39;8.90;59.60
13569;DHT22;6856;51.460;7.158;2024-02-26T03:33:13;8.90;59.60
13569;DHT22;6856;51.460;7.158;2024-02-26T03:35:47;9.20;59.90
13569;DHT22;6856;51.460;7.158;2024-02-26T03:38:23;8.90;59.80
13569;DHT22;6856;51.460;7.158;2024-02-26T03:40:57;8.80;59.90
13569;DHT22;6856;51.460;7.158;2024-02-26T03:43:32;8.80;60.00
13569;DHT22;6856;51.460;7.158;2024-02-26T03:46:07;8.80;60.10
13569;DHT22;6856;51.460;7.158;2024-02-26T03:48:43;8.90;60.50
13569;DHT22;6856;51.460;7.158;2024-02-26T03:51:17;9.10;60.80
13569;DHT22;6856;51.460;7.158;2024-02-26T03:53:53;8.80;60.70
13569;DHT22;6856;51.460;7.158;2024-02-26T03:56:27;8.80;60.80
13569;DHT22;6856;51.460;7.158;2024-02-26T03:59:00;8.80;61.00
13569;DHT22;6856;51.460;7.158;2024-02-26T04:01:35;8.80;61.00
13569;DHT22;6856;51.460;7.158;2024-02-26T04:04:08;8.70;61.80
13569;DHT22;6856;51.460;7.158;2024-02-26T04:06:44;8.80;61.20
13569;DHT22;6856;51.460;7.158;2024-02-26T04:09:20;8.80;61.40
13569;DHT22;6856;51.460;7.158;2024-02-26T04:11:54;8.70;61.50
13569;DHT22;6856;51.460;7.158;2024-02-26T04:14:28;8.70;61.70
13569;DHT22;6856;51.460;7.158;2024-02-26T04:17:02;8.70;61.70
13569;DHT22;6856;51.460;7.158;2024-02-26T04:19:37;8.70;61.90
13569;DHT22;6856;51.460;7.158;2024-02-26T04:22:11;8.70;61.90
13569;DHT22;6856;51.460;7.158;2024-02-26T04:24:46;8.70;62.00
13569;DHT22;6856;51.460;7.158;2024-02-26T04:27:20;9.00;62.30
13569;DHT22;6856;51.460;7.158;2024-02-26T04:29:56;8.70;62.00
13569;DHT22;6856;51.460;7.158;2024-02-26T04:32:30;8.70;62.30
13569;DHT22;6856;51.460;7.158;2024-02-26T04:35:07;8.70;62.30
13569;DHT22;6856;51.460;7.158;2024-02-26T04:37:40;8.70;62.40
13569;DHT22;6856;51.460;7.158;2024-02-26T04:40:16;8.70;62.40
13569;DHT22;6856;51.460;7.158;2024-02-26T04:42:53;9.00;62.70
13569;DHT22;6856;51.460;7.158;2024-02-26T04:45:27;8.70;62.60
13569;DHT22;6856;51.460;7.158;2024-02-26T04:48:01;8.70;62.60
13569;DHT22;6856;51.460;7.158;2024-02-26T04:50:35;8.70;62.70
13569;DHT22;6856;51.460;7.158;2024-02-26T04:53:09;8.70;62.60
13569;DHT22;6856;51.460;7.158;2024-02-26T04:55:44;8.70;62.60
13569;DHT22;6856;51.460;7.158;2024-02-26T04:58:18;8.70;62.70
13569;DHT22;6856;51.460;7.158;2024-02-26T05:00:55;8.70;62.80
13569;DHT22;6856;51.460;7.158;2024-02-26T05:03:28;8.70;62.70
13569;DHT22;6856;51.460;7.158;2024-02-26T05:06:06;8.60;62.80
13569;DHT22;6856;51.460;7.158;2024-02-26T05:08:41;8.70;62.90
13569;DHT22;6856;51.460;7.158;2024-02-26T05:11:17;8.60;62.80
13569;DHT22;6856;51.460;7.158;2024-02-26T05:13:51;8.60;62.80
13569;DHT22;6856;51.460;7.158;2024-02-26T05:16:25;8.60;62.90
13569;DHT22;6856;51.460;7.158;2024-02-26T05:18:59;8.60;63.00
13569;DHT22;6856;51.460;7.158;2024-02-26T05:21:33;8.70;63.10
13569;DHT22;6856;51.460;7.158;2024-02-26T05:24:08;8.60;63.20
13569;DHT22;6856;51.460;7.158;2024-02-26T05:26:44;8.60;63.20
13569;DHT22;6856;51.460;7.158;2024-02-26T05:29:18;8.60;63.40
13569;DHT22;6856;51.460;7.158;2024-02-26T05:31:52;8.60;63.40
13569;DHT22;6856;51.460;7.158;2024-02-26T05:34:27;8.60;63.50
13569;DHT22;6856;51.460;7.158;2024-02-26T05:37:03;8.60;63.50
13569;DHT22;6856;51.460;7.158;2024-02-26T05:39:38;8.60;63.50
13569;DHT22;6856;51.460;7.158;2024-02-26T05:42:14;8.60;63.50
13569;DHT22;6856;51.460;7.158;2024-02-26T05:44:48;8.60;63.40
13569;DHT22;6856;51.460;7.158;2024-02-26T05:47:21;8.60;63.60
13569;DHT22;6856;51.460;7.158;2024-02-26T05:49:55;8.60;63.70
13569;DHT22;6856;51.460;7.158;2024-02-26T05:52:31;8.50;63.70
13569;DHT22;6856;51.460;7.158;2024-02-26T05:55:05;8.50;63.60
13569;DHT22;6856;51.460;7.158;2024-02-26T05:57:41;8.50;63.90
13569;DHT22;6856;51.460;7.158;2024-02-26T06:00:15;8.50;63.90
13569;DHT22;6856;51.460;7.158;2024-02-26T06:02:49;8.50;64.00
13569;DHT22;6856;51.460;7.158;2024-02-26T06:05:23;8.50;64.00
13569;DHT22;6856;51.460;7.158;2024-02-26T06:07:57;8.50;64.10
13569;DHT22;6856;51.460;7.158;2024-02-26T06:10:30;8.70;64.30
13569;DHT22;6856;51.460;7.158;2024-02-26T06:13:07;8.40;64.10
13569;DHT22;6856;51.460;7.158;2024-02-26T06:15:41;8.40;64.30
13569;DHT22;6856;51.460;7.158;2024-02-26T06:18:14;8.40;64.40
13569;DHT22;6856;51.460;7.158;2024-02-26T06:20:50;8.40;64.30
13569;DHT22;6856;51.460;7.158;2024-02-26T06:23:25;8.40;64.60
13569;DHT22;6856;51.460;7.158;2024-02-26T06:25:58;8.40;64.50
13569;DHT22;6856;51.460;7.158;2024-02-26T06:28:33;8.70;64.80
13569;DHT22;6856;51.460;7.158;2024-02-26T06:31:08;8.40;64.70
13569;DHT22;6856;51.460;7.158;2024-02-26T06:33:42;8.30;64.70
13569;DHT22;6856;51.460;7.158;2024-02-26T06:36:16;8.30;64.80
13569;DHT22;6856;51.460;7.158;2024-02-26T06:38:51;8.30;64.90
13569;DHT22;6856;51.460;7.158;2024-02-26T06:41:26;8.30;64.90
13569;DHT22;6856;51.460;7.158;2024-02-26T06:44:03;8.30;65.00
13569;DHT22;6856;51.460;7.158;2024-02-26T06:46:37;8.30;65.10
13569;DHT22;6856;51.460;7.158;2024-02-26T06:49:11;8.30;65.20
13569;DHT22;6856;51.460;7.158;2024-02-26T06:51:45;8.30;65.20
13569;DHT22;6856;51.460;7.158;2024-02-26T06:54:19;8.30;65.20
13569;DHT22;6856;51.460;7.158;2024-02-26T06:56:55;8.30;65.30
13569;DHT22;6856;51.460;7.158;2024-02-26T06:59:30;8.30;65.40
13569;DHT22;6856;51.460;7.158;2024-02-26T07:02:04;8.30;65.40
13569;DHT22;6856;51.460;7.158;2024-02-26T07:04:38;8.30;65.50
13569;DHT22;6856;51.460;7.158;2024-02-26T07:07:13;8.30;65.50
13569;DHT22;6856;51.460;7.158;2024-02-26T07:09:51;8.30;65.70
13569;DHT22;6856;51.460;7.158;2024-02-26T07:12:26;8.30;66.40
13569;DHT22;6856;51.460;7.158;2024-02-26T07:15:02;8.30;65.60
13569;DHT22;6856;51.460;7.158;2024-02-26T07:17:36;8.30;65.70
13569;DHT22;6856;51.460;7.158;2024-02-26T07:20:15;8.30;65.60
13569;DHT22;6856;51.460;7.158;2024-02-26T07:22:50;8.30;65.70
13569;DHT22;6856;51.460;7.158;2024-02-26T07:25:24;8.30;65.60
13569;DHT22;6856;51.460;7.158;2024-02-26T07:27:58;8.30;65.80
13569;DHT22;6856;51.460;7.158;2024-02-26T07:30:34;8.30;65.90
13569;DHT22;6856;51.460;7.158;2024-02-26T07:33:07;8.30;65.90
13569;DHT22;6856;51.460;7.158;2024-02-26T07:35:41;8.30;65.90
13569;DHT22;6856;51.460;7.158;2024-02-26T07:38:15;8.60;66.30
13569;DHT22;6856;51.460;7.158;2024-02-26T07:41:04;8.30;66.10
13569;DHT22;6856;51.460;7.158;2024-02-26T07:43:38;8.30;66.20
13569;DHT22;6856;51.460;7.158;2024-02-26T07:46:16;8.30;66.20
13569;DHT22;6856;51.460;7.158;2024-02-26T07:48:50;8.30;66.20
13569;DHT22;6856;51.460;7.158;2024-02-26T07:51:24;8.40;66.40
13569;DHT22;6856;51.460;7.158;2024-02-26T07:53:58;8.50;66.30
13569;DHT22;6856;51.460;7.158;2024-02-26T07:56:32;8.40;66.30
13569;DHT22;6856;51.460;7.158;2024-02-26T07:59:06;8.20;66.30
13569;DHT22;6856;51.460;7.158;2024-02-26T08:01:44;8.40;66.90
13569;DHT22;6856;51.460;7.158;2024-02-26T08:04:29;8.40;66.50
13569;DHT22;6856;51.460;7.158;2024-02-26T08:07:03;8.40;66.50
13569;DHT22;6856;51.460;7.158;2024-02-26T08:09:37;8.40;66.60
13569;DHT22;6856;51.460;7.158;2024-02-26T08:12:12;8.40;66.70
13569;DHT22;6856;51.460;7.158;2024-02-26T08:14:46;8.50;66.70
13569;DHT22;6856;51.460;7.158;2024-02-26T08:17:24;8.40;66.80
13569;DHT22;6856;51.460;7.158;2024-02-26T08:19:59;8.40;66.70
13569;DHT22;6856;51.460;7.158;2024-02-26T08:22:33;8.50;66.80
13569;DHT22;6856;51.460;7.158;2024-02-26T08:25:08;8.50;66.60
13569;DHT22;6856;51.460;7.158;2024-02-26T08:27:43;8.50;67.00
13569;DHT22;6856;51.460;7.158;2024-02-26T08:30:17;8.70;67.00
13569;DHT22;6856;51.460;7.158;2024-02-26T08:32:53;8.50;66.90
13569;DHT22;6856;51.460;7.158;2024-02-26T08:35:29;8.80;67.20
13569;DHT22;6856;51.460;7.158;2024-02-26T08:38:03;8.70;67.10
13569;DHT22;6856;51.460;7.158;2024-02-26T08:40:37;8.50;67.10
13569;DHT22;6856;51.460;7.158;2024-02-26T08:43:11;8.50;67.10
13569;DHT22;6856;51.460;7.158;2024-02-26T08:45:46;8.50;67.20
13569;DHT22;6856;51.460;7.158;2024-02-26T08:48:23;8.50;67.20
13569;DHT22;6856;51.460;7.158;2024-02-26T08:50:58;8.50;66.50
13569;DHT22;6856;51.460;7.158;2024-02-26T08:53:32;8.80;67.40
13569;DHT22;6856;51.460;7.158;2024-02-26T08:56:14;8.50;67.30
13569;DHT22;6856;51.460;7.158;2024-02-26T08:58:50;8.60;67.40
13569;DHT22;6856;51.460;7.158;2024-02-26T09:01:25;8.60;67.50
13569;DHT22;6856;51.460;7.158;2024-02-26T09:04:01;8.60;67.40
13569;DHT22;6856;51.460;7.158;2024-02-26T09:06:38;8.60;67.40
13569;DHT22;6856;51.460;7.158;2024-02-26T09:09:12;8.60;67.50
13569;DHT22;6856;51.460;7.158;2024-02-26T09:11:46;8.60;67.50
13569;DHT22;6856;51.460;7.158;2024-02-26T09:14:20;8.60;67.40
13569;DHT22;6856;51.460;7.158;2024-02-26T09:17:02;8.60;67.60
13569;DHT22;6856;51.460;7.158;2024-02-26T09:19:39;8.60;67.70
13569;DHT22;6856;51.460;7.158;2024-02-26T09:22:15;8.60;67.60
13569;DHT22;6856;51.460;7.158;2024-02-26T09:24:50;8.70;67.60
13569;DHT22;6856;51.460;7.158;2024-02-26T09:27:25;8.70;67.50
13569;DHT22;6856;51.460;7.158;2024-02-26T09:30:00;8.70;67.50
13569;DHT22;6856;51.460;7.158;2024-02-26T09:32:35;8.70;67.50
13569;DHT22;6856;51.460;7.158;2024-02-26T09:35:11;8.70;67.50
13569;DHT22;6856;51.460;7.158;2024-02-26T09:37:45;8.70;67.40
13569;DHT22;6856;51.460;7.158;2024-02-26T09:40:22;8.70;67.60
13569;DHT22;6856;51.460;7.158;2024-02-26T09:43:00;8.80;67.60
13569;DHT22;6856;51.460;7.158;2024-02-26T09:45:36;8.80;67.60
13569;DHT22;6856;51.460;7.158;2024-02-26T09:48:10;8.80;67.80
13569;DHT22;6856;51.460;7.158;2024-02-26T09:50:48;8.80;67.80
13569;DHT22;6856;51.460;7.158;2024-02-26T09:53:23;8.80;67.90
13569;DHT22;6856;51.460;7.158;2024-02-26T09:55:57;8.80;68.10
13569;DHT22;6856;51.460;7.158;2024-02-26T09:58:33;8.90;68.10
13569;DHT22;6856;51.460;7.158;2024-02-26T10:01:13;8.90;68.20
13569;DHT22;6856;51.460;7.158;2024-02-26T10:03:55;8.90;68.30
13569;DHT22;6856;51.460;7.158;2024-02-26T10:06:34;9.00;68.50
13569;DHT22;6856;51.460;7.158;2024-02-26T10:09:10;9.00;68.60
13569;DHT22;6856;51.460;7.158;2024-02-26T10:11:46;9.00;68.30
13569;DHT22;6856;51.460;7.158;2024-02-26T10:14:23;9.00;68.30
13569;DHT22;6856;51.460;7.158;2024-02-26T10:16:59;9.00;68.30
13569;DHT22;6856;51.460;7.158;2024-02-26T10:19:34;9.40;68.30
13569;DHT22;6856;51.460;7.158;2024-02-26T10:22:11;9.10;68.10
13569;DHT22;6856;51.460;7.158;2024-02-26T10:24:47;9.40;68.30
13569;DHT22;6856;51.460;7.158;2024-02-26T10:27:21;9.40;68.30
13569;DHT22;6856;51.460;7.158;2024-02-26T10:29:57;9.10;68.20
13569;DHT22;6856;51.460;7.158;2024-02-26T10:32:31;9.20;68.20
13569;DHT22;6856;51.460;7.158;2024-02-26T10:35:08;9.20;68.30
13569;DHT22;6856;51.460;7.158;2024-02-26T10:37:45;9.20;68.20
13569;DHT22;6856;51.460;7.158;2024-02-26T10:40:19;9.20;68.70
13569;DHT22;6856;51.460;7.158;2024-02-26T10:42:54;9.20;68.30
13569;DHT22;6856;51.460;7.158;2024-02-26T10:45:28;9.30;68.30
13569;DHT22;6856;51.460;7.158;2024-02-26T10:48:10;9.30;68.40
13569;DHT22;6856;51.460;7.158;2024-02-26T10:50:47;9.60;68.70
13569;DHT22;6856;51.460;7.158;2024-02-26T10:53:26;9.30;68.40
13569;DHT22;6856;51.460;7.158;2024-02-26T10:56:04;9.40;68.60
13569;DHT22;6856;51.460;7.158;2024-02-26T10:58:39;9.40;69.30
13569;DHT22;6856;51.460;7.158;2024-02-26T11:01:15;9.40;68.60
13569;DHT22;6856;51.460;7.158;2024-02-26T11:03:52;9.40;68.70
13569;DHT22;6856;51.460;7.158;2024-02-26T11:06:27;9.50;68.80
13569;DHT22;6856;51.460;7.158;2024-02-26T11:09:03;9.60;68.80
13569;DHT22;6856;51.460;7.158;2024-02-26T11:11:39;9.50;68.90
13569;DHT22;6856;51.460;7.158;2024-02-26T11:14:14;9.60;68.90
13569;DHT22;6856;51.460;7.158;2024-02-26T11:16:50;9.60;68.90
13569;DHT22;6856;51.460;7.158;2024-02-26T11:19:24;9.60;68.70
13569;DHT22;6856;51.460;7.158;2024-02-26T11:22:01;9.60;68.90
13569;DHT22;6856;51.460;7.158;2024-02-26T11:24:54;9.70;68.70
13569;DHT22;6856;51.460;7.158;2024-02-26T11:27:30;9.70;68.80
13569;DHT22;6856;51.460;7.158;2024-02-26T11:30:10;9.90;69.00
13569;DHT22;6856;51.460;7.158;2024-02-26T11:32:45;9.80;69.00
13569;DHT22;6856;51.460;7.158;2024-02-26T11:35:20;9.80;69.00
13569;DHT22;6856;51.460;7.158;2024-02-26T11:37:58;10.10;69.20
13569;DHT22;6856;51.460;7.158;2024-02-26T11:40:38;9.90;69.00
13569;DHT22;6856;51.460;7.158;2024-02-26T11:43:13;9.90;69.10
13569;DHT22;6856;51.460;7.158;2024-02-26T11:45:52;9.90;69.00
13569;DHT22;6856;51.460;7.158;2024-02-26T11:48:32;10.00;69.00
13569;DHT22;6856;51.460;7.158;2024-02-26T11:51:07;10.00;68.90
13569;DHT22;6856;51.460;7.158;2024-02-26T11:53:46;10.00;68.80
13569;DHT22;6856;51.460;7.158;2024-02-26T11:56:25;10.10;68.80
13569;DHT22;6856;51.460;7.158;2024-02-26T11:59:04;10.10;69.00
13569;DHT22;6856;51.460;7.158;2024-02-26T12:01:44;10.30;69.30
13569;DHT22;6856;51.460;7.158;2024-02-26T12:04:22;10.20;69.20
13569;DHT22;6856;51.460;7.158;2024-02-26T12:07:02;10.30;69.10
13569;DHT22;6856;51.460;7.158;2024-02-26T12:09:39;10.30;68.80
13569;DHT22;6856;51.460;7.158;2024-02-26T12:12:18;10.60;68.70
13569;DHT22;6856;51.460;7.158;2024-02-26T12:14:56;10.40;68.20
13569;DHT22;6856;51.460;7.158;2024-02-26T12:17:32;10.40;67.90
13569;DHT22;6856;51.460;7.158;2024-02-26T12:20:08;10.70;67.90
13569;DHT22;6856;51.460;7.158;2024-02-26T12:22:45;10.50;67.60
13569;DHT22;6856;51.460;7.158;2024-02-26T12:25:24;10.50;67.40
13569;DHT22;6856;51.460;7.158;2024-02-26T12:28:01;10.60;67.60
13569;DHT22;6856;51.460;7.158;2024-02-26T12:30:35;10.80;67.60
13569;DHT22;6856;51.460;7.158;2024-02-26T12:33:10;10.60;67.50
13569;DHT22;6856;51.460;7.158;2024-02-26T12:35:45;10.70;67.40
13569;DHT22;6856;51.460;7.158;2024-02-26T12:38:21;10.70;67.40
13569;DHT22;6856;51.460;7.158;2024-02-26T12:40:55;10.80;67.20
13569;DHT22;6856;51.460;7.158;2024-02-26T12:43:31;10.80;66.80
13569;DHT22;6856;51.460;7.158;2024-02-26T12:46:05;10.80;66.50
13569;DHT22;6856;51.460;7.158;2024-02-26T12:48:41;10.90;66.90
13569;DHT22;6856;51.460;7.158;2024-02-26T12:51:17;10.80;65.80
13569;DHT22;6856;51.460;7.158;2024-02-26T12:53:52;10.80;65.70
13569;DHT22;6856;51.460;7.158;2024-02-26T12:56:27;10.80;65.50
13569;DHT22;6856;51.460;7.158;2024-02-26T12:59:06;10.80;65.40
13569;DHT22;6856;51.460;7.158;2024-02-26T13:01:40;10.90;65.40
13569;DHT22;6856;51.460;7.158;2024-02-26T13:04:15;10.70;65.20
13569;DHT22;6856;51.460;7.158;2024-02-26T13:06:49;10.70;65.30
13569;DHT22;6856;51.460;7.158;2024-02-26T13:09:23;10.70;65.30
13569;DHT22;6856;51.460;7.158;2024-02-26T13:11:59;10.70;65.50
13569;DHT22;6856;51.460;7.158;2024-02-26T13:14:35;10.70;65.40
13569;DHT22;6856;51.460;7.158;2024-02-26T13:17:10;10.70;65.30
13569;DHT22;6856;51.460;7.158;2024-02-26T13:19:50;10.70;65.10
13569;DHT22;6856;51.460;7.158;2024-02-26T13:22:24;10.70;64.90
13569;DHT22;6856;51.460;7.158;2024-02-26T13:25:02;10.70;64.70
13569;DHT22;6856;51.460;7.158;2024-02-26T13:27:37;10.70;64.80
13569;DHT22;6856;51.460;7.158;2024-02-26T13:30:14;10.70;64.70
13569;DHT22;6856;51.460;7.158;2024-02-26T13:32:48;10.70;64.70
13569;DHT22;6856;51.460;7.158;2024-02-26T13:35:22;10.70;64.70
13569;DHT22;6856;51.460;7.158;2024-02-26T13:37:59;10.70;64.60
13569;DHT22;6856;51.460;7.158;2024-02-26T13:40:43;10.70;64.30
13569;DHT22;6856;51.460;7.158;2024-02-26T13:43:19;10.60;64.30
13569;DHT22;6856;51.460;7.158;2024-02-26T13:45:55;11.00;64.60
13569;DHT22;6856;51.460;7.158;2024-02-26T13:48:28;10.70;64.40
13569;DHT22;6856;51.460;7.158;2024-02-26T13:51:05;10.70;64.40
13569;DHT22;6856;51.460;7.158;2024-02-26T13:53:39;10.70;64.50
13569;DHT22;6856;51.460;7.158;2024-02-26T13:56:15;10.90;64.50
13569;DHT22;6856;51.460;7.158;2024-02-26T13:58:48;10.70;64.30
13569;DHT22;6856;51.460;7.158;2024-02-26T14:01:25;10.70;64.30
13569;DHT22;6856;51.460;7.158;2024-02-26T14:03:59;10.70;64.20
13569;DHT22;6856;51.460;7.158;2024-02-26T14:06:35;10.70;64.20
13569;DHT22;6856;51.460;7.158;2024-02-26T14:09:09;10.70;64.10
13569;DHT22;6856;51.460;7.158;2024-02-26T14:11:42;10.70;64.00
13569;DHT22;6856;51.460;7.158;2024-02-26T14:14:17;10.80;64.00
13569;DHT22;6856;51.460;7.158;2024-02-26T14:16:52;10.70;63.90
13569;DHT22;6856;51.460;7.158;2024-02-26T14:19:26;10.70;64.00
13569;DHT22;6856;51.460;7.158;2024-02-26T14:22:01;10.80;64.00
13569;DHT22;6856;51.460;7.158;2024-02-26T14:24:34;11.00;64.20
13569;DHT22;6856;51.460;7.158;2024-02-26T14:27:10;10.80;64.10
13569;DHT22;6856;51.460;7.158;2024-02-26T14:29:48;11.10;64.30
13569;DHT22;6856;51.460;7.158;2024-02-26T14:32:24;10.80;64.00
13569;DHT22;6856;51.460;7.158;2024-02-26T14:34:58;10.90;63.90
13569;DHT22;6856;51.460;7.158;2024-02-26T14:37:31;10.80;63.90
13569;DHT22;6856;51.460;7.158;2024-02-26T14:40:07;10.80;64.00
13569;DHT22;6856;51.460;7.158;2024-02-26T14:42:41;10.80;64.00
13569;DHT22;6856;51.460;7.158;2024-02-26T14:45:16;10.90;63.90
13569;DHT22;6856;51.460;7.158;2024-02-26T14:47:54;10.90;63.70
13569;DHT22;6856;51.460;7.158;2024-02-26T14:50:28;10.80;63.50
13569;DHT22;6856;51.460;7.158;2024-02-26T14:53:03;10.80;63.50
13569;DHT22;6856;51.460;7.158;2024-02-26T14:55:38;10.80;63.50
13569;DHT22;6856;51.460;7.158;2024-02-26T14:58:13;10.80;64.10
13569;DHT22;6856;51.460;7.158;2024-02-26T15:00:47;10.80;63.20
13569;DHT22;6856;51.460;7.158;2024-02-26T15:03:28;10.80;64.00
13569;DHT22;6856;51.460;7.158;2024-02-26T15:06:02;10.80;63.10
13569;DHT22;6856;51.460;7.158;2024-02-26T15:08:37;10.80;63.30
13569;DHT22;6856;51.460;7.158;2024-02-26T15:11:11;10.80;63.20
13569;DHT22;6856;51.460;7.158;2024-02-26T15:13:45;11.00;63.30
13569;DHT22;6856;51.460;7.158;2024-02-26T15:16:20;11.00;63.20
13569;DHT22;6856;51.460;7.158;2024-02-26T15:18:55;10.80;62.90
13569;DHT22;6856;51.460;7.158;2024-02-26T15:21:30;10.80;62.90
13569;DHT22;6856;51.460;7.158;2024-02-26T15:24:05;10.80;62.80
13569;DHT22;6856;51.460;7.158;2024-02-26T15:26:40;10.80;62.80
13569;DHT22;6856;51.460;7.158;2024-02-26T15:29:14;10.80;62.60
13569;DHT22;6856;51.460;7.158;2024-02-26T15:31:47;10.80;62.40
13569;DHT22;6856;51.460;7.158;2024-02-26T15:34:23;10.80;62.50
13569;DHT22;6856;51.460;7.158;2024-02-26T15:36:57;10.80;62.30
13569;DHT22;6856;51.460;7.158;2024-02-26T15:39:31;10.80;62.30
13569;DHT22;6856;51.460;7.158;2024-02-26T15:42:06;10.80;62.10
13569;DHT22;6856;51.460;7.158;2024-02-26T15:44:42;10.80;62.10
13569;DHT22;6856;51.460;7.158;2024-02-26T15:47:18;10.80;62.10
13569;DHT22;6856;51.460;7.158;2024-02-26T15:49:53;10.80;62.00
13569;DHT22;6856;51.460;7.158;2024-02-26T15:52:27;10.80;61.90
13569;DHT22;6856;51.460;7.158;2024-02-26T15:55:01;11.10;62.20
13569;DHT22;6856;51.460;7.158;2024-02-26T15:57:36;10.80;62.10
13569;DHT22;6856;51.460;7.158;2024-02-26T16:00:10;11.00;62.30
13569;DHT22;6856;51.460;7.158;2024-02-26T16:02:47;10.70;62.10
13569;DHT22;6856;51.460;7.158;2024-02-26T16:05:25;10.80;62.10
13569;DHT22;6856;51.460;7.158;2024-02-26T16:08:01;10.70;62.00
13569;DHT22;6856;51.460;7.158;2024-02-26T16:10:38;10.70;62.00
13569;DHT22;6856;51.460;7.158;2024-02-26T16:13:13;10.70;61.70
13569;DHT22;6856;51.460;7.158;2024-02-26T16:15:58;10.70;61.90
13569;DHT22;6856;51.460;7.158;2024-02-26T16:18:37;11.00;62.10
13569;DHT22;6856;51.460;7.158;2024-02-26T16:21:16;10.70;61.70
13569;DHT22;6856;51.460;7.158;2024-02-26T16:23:53;10.70;61.80
13569;DHT22;6856;51.460;7.158;2024-02-26T16:26:27;10.80;61.90
13569;DHT22;6856;51.460;7.158;2024-02-26T16:29:01;10.70;61.80
13569;DHT22;6856;51.460;7.158;2024-02-26T16:31:35;10.80;62.00
13569;DHT22;6856;51.460;7.158;2024-02-26T16:34:09;10.70;62.00
13569;DHT22;6856;51.460;7.158;2024-02-26T16:36:45;10.90;62.00
13569;DHT22;6856;51.460;7.158;2024-02-26T16:39:21;10.60;61.80
13569;DHT22;6856;51.460;7.158;2024-02-26T16:41:57;10.60;61.80
13569;DHT22;6856;51.460;7.158;2024-02-26T16:44:33;10.80;61.80
13569;DHT22;6856;51.460;7.158;2024-02-26T16:47:09;10.60;61.80
13569;DHT22;6856;51.460;7.158;2024-02-26T16:49:43;10.60;61.80